sensor_id;sensor_type;location;lat;lon;timestamp;pressure;altitude;pressure_sealevel;temperature;humidity
50636;BME280;36598;46.054;11.130;2023-03-22T00:01:44;99173.19;;;13.85;52.91
50636;BME280;36598;46.054;11.130;2023-03-22T00:04:10;99173.63;;;13.84;53.77
50636;BME280;36598;46.054;11.130;2023-03-22T00:06:35;99172.59;;;14.07;53.15
50636;BME280;36598;46.054;11.130;2023-03-22T00:09:01;99162.00;;;13.72;54.03
50636;BME280;36598;46.054;11.130;2023-03-22T00:11:26;99162.84;;;13.86;53.69
50636;BME280;36598;46.054;11.130;2023-03-22T00:13:51;99165.06;;;13.91;53.22
50636;BME280;36598;46.054;11.130;2023-03-22T00:16:17;99163.06;;;13.62;55.10
50636;BME280;36598;46.054;11.130;2023-03-22T00:18:43;99163.47;;;13.77;54.12
50636;BME280;36598;46.054;11.130;2023-03-22T00:21:12;99163.88;;;13.92;53.37
50636;BME280;36598;46.054;11.130;2023-03-22T00:23:37;99162.19;;;13.49;54.82
50636;BME280;36598;46.054;11.130;2023-03-22T00:26:03;99156.59;;;13.16;55.31
50636;BME280;36598;46.054;11.130;2023-03-22T00:28:28;99160.53;;;13.51;54.88
50636;BME280;36598;46.054;11.130;2023-03-22T00:30:54;99156.81;;;13.58;54.82
50636;BME280;36598;46.054;11.130;2023-03-22T00:33:20;99154.72;;;13.62;54.56
50636;BME280;36598;46.054;11.130;2023-03-22T00:35:47;99156.59;;;13.82;54.30
50636;BME280;36598;46.054;11.130;2023-03-22T00:38:12;99155.19;;;13.73;55.15
50636;BME280;36598;46.054;11.130;2023-03-22T00:40:39;99144.84;;;13.74;54.48
50636;BME280;36598;46.054;11.130;2023-03-22T00:43:05;99145.81;;;13.84;53.80
50636;BME280;36598;46.054;11.130;2023-03-22T00:45:30;99150.47;;;13.58;55.15
50636;BME280;36598;46.054;11.130;2023-03-22T00:47:55;99145.69;;;13.58;54.85
50636;BME280;36598;46.054;11.130;2023-03-22T00:50:20;99147.50;;;13.48;55.63
50636;BME280;36598;46.054;11.130;2023-03-22T00:52:46;99142.69;;;13.65;54.32
50636;BME280;36598;46.054;11.130;2023-03-22T00:55:11;99143.59;;;13.62;54.93
50636;BME280;36598;46.054;11.130;2023-03-22T00:57:36;99142.38;;;13.47;55.62
50636;BME280;36598;46.054;11.130;2023-03-22T01:00:02;99145.34;;;13.40;55.82
50636;BME280;36598;46.054;11.130;2023-03-22T01:02:34;99140.28;;;13.67;55.07
50636;BME280;36598;46.054;11.130;2023-03-22T01:05:00;99137.84;;;13.69;55.27
50636;BME280;36598;46.054;11.130;2023-03-22T01:07:26;99127.47;;;13.41;55.21
50636;BME280;36598;46.054;11.130;2023-03-22T01:09:52;99128.28;;;13.70;54.72
50636;BME280;36598;46.054;11.130;2023-03-22T01:12:17;99121.97;;;13.21;55.31
50636;BME280;36598;46.054;11.130;2023-03-22T01:14:42;99125.88;;;13.40;55.77
50636;BME280;36598;46.054;11.130;2023-03-22T01:17:08;99115.53;;;13.40;56.02
50636;BME280;36598;46.054;11.130;2023-03-22T01:19:34;99119.63;;;13.52;56.07
50636;BME280;36598;46.054;11.130;2023-03-22T01:22:00;99114.06;;;13.52;55.04
50636;BME280;36598;46.054;11.130;2023-03-22T01:24:25;99110.88;;;13.53;54.94
50636;BME280;36598;46.054;11.130;2023-03-22T01:26:51;99112.66;;;13.60;54.64
50636;BME280;36598;46.054;11.130;2023-03-22T01:29:16;99111.09;;;13.59;54.71
50636;BME280;36598;46.054;11.130;2023-03-22T01:31:42;99112.91;;;13.66;54.61
50636;BME280;36598;46.054;11.130;2023-03-22T01:34:07;99120.22;;;13.60;55.45
50636;BME280;36598;46.054;11.130;2023-03-22T01:36:32;99115.09;;;13.58;54.79
50636;BME280;36598;46.054;11.130;2023-03-22T01:38:58;99110.72;;;13.28;55.46
50636;BME280;36598;46.054;11.130;2023-03-22T01:41:23;99111.00;;;12.97;55.70
50636;BME280;36598;46.054;11.130;2023-03-22T01:46:32;99123.28;;;13.16;56.34
50636;BME280;36598;46.054;11.130;2023-03-22T01:48:58;99115.47;;;13.44;55.49
50636;BME280;36598;46.054;11.130;2023-03-22T01:51:25;99129.19;;;13.35;55.18
50636;BME280;36598;46.054;11.130;2023-03-22T01:53:52;99122.81;;;13.01;55.93
50636;BME280;36598;46.054;11.130;2023-03-22T01:56:18;99119.41;;;12.77;56.56
50636;BME280;36598;46.054;11.130;2023-03-22T01:58:46;99114.22;;;12.96;56.14
50636;BME280;36598;46.054;11.130;2023-03-22T02:01:12;99130.00;;;12.83;57.33
50636;BME280;36598;46.054;11.130;2023-03-22T02:03:49;99126.03;;;13.16;55.95
50636;BME280;36598;46.054;11.130;2023-03-22T02:06:17;99132.31;;;13.20;55.70
50636;BME280;36598;46.054;11.130;2023-03-22T02:08:42;99130.94;;;13.28;55.78
50636;BME280;36598;46.054;11.130;2023-03-22T02:11:10;99119.22;;;13.37;55.63
50636;BME280;36598;46.054;11.130;2023-03-22T02:16:31;99126.91;;;13.13;56.68
50636;BME280;36598;46.054;11.130;2023-03-22T02:27:10;99133.00;;;13.08;57.59
50636;BME280;36598;46.054;11.130;2023-03-22T02:35:06;99139.66;;;12.94;58.23
50636;BME280;36598;46.054;11.130;2023-03-22T02:42:42;99144.78;;;12.96;57.20
50636;BME280;36598;46.054;11.130;2023-03-22T02:58:26;99152.16;;;13.02;56.94
50636;BME280;36598;46.054;11.130;2023-03-22T03:00:58;99164.91;;;13.00;56.80
50636;BME280;36598;46.054;11.130;2023-03-22T03:03:24;99157.88;;;12.95;57.02
50636;BME280;36598;46.054;11.130;2023-03-22T03:05:54;99162.28;;;12.93;56.72
50636;BME280;36598;46.054;11.130;2023-03-22T03:08:20;99161.25;;;12.50;57.99
50636;BME280;36598;46.054;11.130;2023-03-22T03:10:46;99164.19;;;12.43;58.77
50636;BME280;36598;46.054;11.130;2023-03-22T03:13:13;99159.13;;;12.38;58.54
50636;BME280;36598;46.054;11.130;2023-03-22T03:15:39;99155.31;;;12.68;58.13
50636;BME280;36598;46.054;11.130;2023-03-22T03:30:22;99157.34;;;12.48;58.48
50636;BME280;36598;46.054;11.130;2023-03-22T03:32:55;99165.16;;;12.53;58.72
50636;BME280;36598;46.054;11.130;2023-03-22T03:35:27;99161.09;;;12.58;57.99
50636;BME280;36598;46.054;11.130;2023-03-22T03:40:39;99160.28;;;12.77;57.90
50636;BME280;36598;46.054;11.130;2023-03-22T03:43:06;99166.81;;;12.87;57.40
50636;BME280;36598;46.054;11.130;2023-03-22T03:45:31;99166.13;;;12.99;57.40
50636;BME280;36598;46.054;11.130;2023-03-22T03:48:00;99161.19;;;12.90;57.22
50636;BME280;36598;46.054;11.130;2023-03-22T03:50:27;99166.06;;;12.66;58.63
50636;BME280;36598;46.054;11.130;2023-03-22T03:52:52;99167.50;;;12.54;58.92
50636;BME280;36598;46.054;11.130;2023-03-22T03:55:18;99169.84;;;12.56;59.20
50636;BME280;36598;46.054;11.130;2023-03-22T03:57:44;99169.41;;;12.77;58.91
50636;BME280;36598;46.054;11.130;2023-03-22T04:00:10;99174.69;;;12.88;58.23
50636;BME280;36598;46.054;11.130;2023-03-22T04:02:35;99161.16;;;12.54;58.99
50636;BME280;36598;46.054;11.130;2023-03-22T04:05:00;99166.72;;;12.54;58.27
50636;BME280;36598;46.054;11.130;2023-03-22T04:07:26;99169.91;;;12.72;58.41
50636;BME280;36598;46.054;11.130;2023-03-22T04:09:51;99167.03;;;12.76;58.31
50636;BME280;36598;46.054;11.130;2023-03-22T04:12:16;99166.19;;;12.79;58.34
50636;BME280;36598;46.054;11.130;2023-03-22T04:14:42;99162.28;;;12.76;58.48
50636;BME280;36598;46.054;11.130;2023-03-22T04:17:07;99169.31;;;12.81;58.02
50636;BME280;36598;46.054;11.130;2023-03-22T04:19:32;99163.59;;;12.52;59.09
50636;BME280;36598;46.054;11.130;2023-03-22T04:21:58;99168.84;;;12.66;58.63
50636;BME280;36598;46.054;11.130;2023-03-22T04:24:24;99162.53;;;12.46;58.69
50636;BME280;36598;46.054;11.130;2023-03-22T04:26:49;99171.28;;;12.64;58.46
50636;BME280;36598;46.054;11.130;2023-03-22T04:29:16;99167.94;;;12.33;58.94
50636;BME280;36598;46.054;11.130;2023-03-22T04:31:41;99166.03;;;12.30;58.96
50636;BME280;36598;46.054;11.130;2023-03-22T04:34:06;99168.16;;;12.22;59.63
50636;BME280;36598;46.054;11.130;2023-03-22T04:36:32;99168.75;;;12.34;59.13
50636;BME280;36598;46.054;11.130;2023-03-22T04:39:03;99171.56;;;12.50;58.58
50636;BME280;36598;46.054;11.130;2023-03-22T04:41:30;99171.91;;;12.32;58.78
50636;BME280;36598;46.054;11.130;2023-03-22T04:43:55;99173.28;;;12.24;58.91
50636;BME280;36598;46.054;11.130;2023-03-22T04:46:21;99174.13;;;12.01;59.77
50636;BME280;36598;46.054;11.130;2023-03-22T04:48:47;99174.00;;;12.08;59.78
50636;BME280;36598;46.054;11.130;2023-03-22T04:51:12;99175.56;;;12.09;59.24
50636;BME280;36598;46.054;11.130;2023-03-22T04:53:37;99172.81;;;11.86;60.36
50636;BME280;36598;46.054;11.130;2023-03-22T04:56:06;99175.03;;;11.94;59.75
50636;BME280;36598;46.054;11.130;2023-03-22T04:58:33;99176.03;;;11.81;60.13
50636;BME280;36598;46.054;11.130;2023-03-22T05:01:13;99174.56;;;11.99;59.37
50636;BME280;36598;46.054;11.130;2023-03-22T05:03:39;99179.06;;;11.90;59.89
50636;BME280;36598;46.054;11.130;2023-03-22T05:06:05;99178.34;;;11.86;59.95
50636;BME280;36598;46.054;11.130;2023-03-22T05:08:32;99174.84;;;11.58;60.64
50636;BME280;36598;46.054;11.130;2023-03-22T05:10:58;99172.97;;;11.75;60.11
50636;BME280;36598;46.054;11.130;2023-03-22T05:13:24;99170.13;;;12.02;59.54
50636;BME280;36598;46.054;11.130;2023-03-22T05:15:50;99167.50;;;11.71;60.35
50636;BME280;36598;46.054;11.130;2023-03-22T05:18:16;99175.47;;;11.93;59.85
50636;BME280;36598;46.054;11.130;2023-03-22T05:20:44;99174.91;;;11.54;60.80
50636;BME280;36598;46.054;11.130;2023-03-22T05:23:10;99165.63;;;11.65;60.56
50636;BME280;36598;46.054;11.130;2023-03-22T05:25:35;99170.16;;;11.55;60.45
50636;BME280;36598;46.054;11.130;2023-03-22T05:28:02;99170.78;;;11.16;61.16
50636;BME280;36598;46.054;11.130;2023-03-22T05:30:28;99178.69;;;11.64;59.71
50636;BME280;36598;46.054;11.130;2023-03-22T05:32:56;99179.38;;;11.72;60.19
50636;BME280;36598;46.054;11.130;2023-03-22T05:35:23;99184.38;;;11.57;60.41
50636;BME280;36598;46.054;11.130;2023-03-22T05:37:49;99188.94;;;11.67;60.24
50636;BME280;36598;46.054;11.130;2023-03-22T05:40:15;99186.78;;;11.78;59.51
50636;BME280;36598;46.054;11.130;2023-03-22T05:42:41;99191.03;;;12.07;58.72
50636;BME280;36598;46.054;11.130;2023-03-22T05:45:06;99194.69;;;11.57;60.02
50636;BME280;36598;46.054;11.130;2023-03-22T05:47:32;99192.09;;;11.93;59.16
50636;BME280;36598;46.054;11.130;2023-03-22T05:49:57;99194.53;;;12.11;58.95
50636;BME280;36598;46.054;11.130;2023-03-22T05:52:23;99193.09;;;12.02;58.84
50636;BME280;36598;46.054;11.130;2023-03-22T05:54:48;99198.47;;;12.13;58.61
50636;BME280;36598;46.054;11.130;2023-03-22T05:57:13;99201.66;;;12.32;57.93
50636;BME280;36598;46.054;11.130;2023-03-22T05:59:41;99208.34;;;12.34;57.84
50636;BME280;36598;46.054;11.130;2023-03-22T06:02:06;99194.31;;;12.41;58.14
50636;BME280;36598;46.054;11.130;2023-03-22T06:04:31;99199.81;;;12.25;58.07
50636;BME280;36598;46.054;11.130;2023-03-22T06:06:56;99207.72;;;12.46;58.35
50636;BME280;36598;46.054;11.130;2023-03-22T06:09:22;99207.00;;;12.62;56.92
50636;BME280;36598;46.054;11.130;2023-03-22T06:11:47;99207.16;;;12.55;56.93
50636;BME280;36598;46.054;11.130;2023-03-22T06:14:12;99213.41;;;12.59;57.45
50636;BME280;36598;46.054;11.130;2023-03-22T06:16:38;99214.16;;;12.79;57.01
50636;BME280;36598;46.054;11.130;2023-03-22T06:19:03;99220.22;;;12.74;57.04
50636;BME280;36598;46.054;11.130;2023-03-22T06:21:28;99225.28;;;12.60;57.37
50636;BME280;36598;46.054;11.130;2023-03-22T06:23:53;99224.72;;;12.48;57.31
50636;BME280;36598;46.054;11.130;2023-03-22T06:26:19;99220.09;;;12.62;56.79
50636;BME280;36598;46.054;11.130;2023-03-22T06:28:44;99216.72;;;12.90;56.50
50636;BME280;36598;46.054;11.130;2023-03-22T06:31:09;99222.50;;;13.16;55.58
50636;BME280;36598;46.054;11.130;2023-03-22T06:33:35;99226.00;;;12.64;57.35
50636;BME280;36598;46.054;11.130;2023-03-22T06:36:00;99231.44;;;13.07;55.59
50636;BME280;36598;46.054;11.130;2023-03-22T06:38:26;99233.91;;;13.01;56.04
50636;BME280;36598;46.054;11.130;2023-03-22T06:40:51;99230.03;;;13.51;54.90
50636;BME280;36598;46.054;11.130;2023-03-22T06:43:17;99227.84;;;13.43;54.92
50636;BME280;36598;46.054;11.130;2023-03-22T06:45:42;99222.88;;;13.83;53.55
50636;BME280;36598;46.054;11.130;2023-03-22T06:48:09;99230.81;;;13.85;53.31
50636;BME280;36598;46.054;11.130;2023-03-22T06:50:35;99233.59;;;15.26;50.33
50636;BME280;36598;46.054;11.130;2023-03-22T06:53:02;99222.50;;;18.82;41.66
50636;BME280;36598;46.054;11.130;2023-03-22T06:55:28;99228.44;;;20.85;37.64
50636;BME280;36598;46.054;11.130;2023-03-22T06:57:57;99229.19;;;21.80;35.51
50636;BME280;36598;46.054;11.130;2023-03-22T07:00:22;99232.88;;;22.27;34.00
50636;BME280;36598;46.054;11.130;2023-03-22T07:02:48;99227.06;;;23.08;32.87
50636;BME280;36598;46.054;11.130;2023-03-22T07:05:13;99228.50;;;23.61;31.87
50636;BME280;36598;46.054;11.130;2023-03-22T07:07:38;99231.25;;;24.41;30.63
50636;BME280;36598;46.054;11.130;2023-03-22T07:10:04;99236.25;;;24.97;29.47
50636;BME280;36598;46.054;11.130;2023-03-22T07:12:31;99226.88;;;26.09;27.72
50636;BME280;36598;46.054;11.130;2023-03-22T07:14:57;99230.88;;;25.33;28.57
50636;BME280;36598;46.054;11.130;2023-03-22T07:17:22;99222.31;;;26.88;26.46
50636;BME280;36598;46.054;11.130;2023-03-22T07:19:47;99223.97;;;27.68;25.41
50636;BME280;36598;46.054;11.130;2023-03-22T07:22:13;99221.47;;;27.89;25.44
50636;BME280;36598;46.054;11.130;2023-03-22T07:24:38;99221.69;;;27.91;25.39
50636;BME280;36598;46.054;11.130;2023-03-22T07:27:03;99225.00;;;29.86;22.66
50636;BME280;36598;46.054;11.130;2023-03-22T07:29:29;99219.28;;;27.77;25.12
50636;BME280;36598;46.054;11.130;2023-03-22T07:31:54;99217.63;;;30.04;22.76
50636;BME280;36598;46.054;11.130;2023-03-22T07:34:20;99229.38;;;29.29;23.25
50636;BME280;36598;46.054;11.130;2023-03-22T07:36:45;99225.19;;;29.62;22.95
50636;BME280;36598;46.054;11.130;2023-03-22T07:39:10;99227.06;;;29.27;23.31
50636;BME280;36598;46.054;11.130;2023-03-22T07:41:35;99223.84;;;28.66;23.72
50636;BME280;36598;46.054;11.130;2023-03-22T07:44:01;99219.59;;;30.23;21.58
50636;BME280;36598;46.054;11.130;2023-03-22T07:46:26;99217.75;;;29.99;22.02
50636;BME280;36598;46.054;11.130;2023-03-22T07:48:52;99227.16;;;29.67;22.16
50636;BME280;36598;46.054;11.130;2023-03-22T07:51:17;99223.59;;;31.01;21.25
50636;BME280;36598;46.054;11.130;2023-03-22T07:53:43;99229.34;;;31.09;21.24
50636;BME280;36598;46.054;11.130;2023-03-22T07:56:08;99221.84;;;31.89;20.35
50636;BME280;36598;46.054;11.130;2023-03-22T07:58:34;99221.09;;;32.33;19.12
50636;BME280;36598;46.054;11.130;2023-03-22T08:01:04;99217.22;;;32.15;19.63
50636;BME280;36598;46.054;11.130;2023-03-22T08:03:29;99217.03;;;31.84;19.61
50636;BME280;36598;46.054;11.130;2023-03-22T08:05:54;99220.59;;;33.32;18.26
50636;BME280;36598;46.054;11.130;2023-03-22T08:08:22;99221.84;;;32.26;18.99
50636;BME280;36598;46.054;11.130;2023-03-22T08:10:48;99220.59;;;33.93;17.46
50636;BME280;36598;46.054;11.130;2023-03-22T08:13:14;99216.63;;;33.58;18.07
50636;BME280;36598;46.054;11.130;2023-03-22T08:15:39;99215.84;;;33.19;17.89
50636;BME280;36598;46.054;11.130;2023-03-22T08:18:07;99216.44;;;33.40;17.80
50636;BME280;36598;46.054;11.130;2023-03-22T08:20:32;99213.94;;;32.47;19.00
50636;BME280;36598;46.054;11.130;2023-03-22T08:22:58;99212.78;;;33.25;18.07
50636;BME280;36598;46.054;11.130;2023-03-22T08:25:23;99214.53;;;34.37;16.95
50636;BME280;36598;46.054;11.130;2023-03-22T08:27:48;99217.59;;;33.45;17.73
50636;BME280;36598;46.054;11.130;2023-03-22T08:30:14;99213.50;;;34.57;16.80
50636;BME280;36598;46.054;11.130;2023-03-22T08:32:39;99209.34;;;33.34;17.91
50636;BME280;36598;46.054;11.130;2023-03-22T08:35:05;99202.22;;;32.37;18.53
50636;BME280;36598;46.054;11.130;2023-03-22T08:37:30;99205.69;;;33.03;18.28
50636;BME280;36598;46.054;11.130;2023-03-22T08:39:56;99204.19;;;33.55;17.62
50636;BME280;36598;46.054;11.130;2023-03-22T08:42:21;99195.97;;;33.59;17.93
50636;BME280;36598;46.054;11.130;2023-03-22T08:44:46;99193.94;;;35.21;16.57
50636;BME280;36598;46.054;11.130;2023-03-22T08:47:12;99203.41;;;34.49;17.18
50636;BME280;36598;46.054;11.130;2023-03-22T08:49:37;99198.25;;;34.39;17.12
50636;BME280;36598;46.054;11.130;2023-03-22T08:52:03;99202.06;;;34.34;17.16
50636;BME280;36598;46.054;11.130;2023-03-22T08:54:31;99202.19;;;32.89;18.29
50636;BME280;36598;46.054;11.130;2023-03-22T08:56:58;99200.09;;;32.82;18.07
50636;BME280;36598;46.054;11.130;2023-03-22T08:59:23;99187.06;;;34.59;16.76
50636;BME280;36598;46.054;11.130;2023-03-22T09:01:48;99183.88;;;31.32;19.14
50636;BME280;36598;46.054;11.130;2023-03-22T09:04:13;99191.00;;;33.37;18.05
50636;BME280;36598;46.054;11.130;2023-03-22T09:06:39;99184.13;;;33.55;17.17
50636;BME280;36598;46.054;11.130;2023-03-22T09:09:08;99175.66;;;33.73;17.44
50636;BME280;36598;46.054;11.130;2023-03-22T09:11:33;99174.84;;;33.95;17.38
50636;BME280;36598;46.054;11.130;2023-03-22T09:14:01;99172.84;;;33.50;17.89
50636;BME280;36598;46.054;11.130;2023-03-22T09:16:26;99168.53;;;32.66;18.17
50636;BME280;36598;46.054;11.130;2023-03-22T09:18:51;99170.53;;;33.56;17.72
50636;BME280;36598;46.054;11.130;2023-03-22T09:21:16;99163.84;;;33.23;17.37
50636;BME280;36598;46.054;11.130;2023-03-22T09:23:42;99160.56;;;32.88;18.17
50636;BME280;36598;46.054;11.130;2023-03-22T09:26:11;99162.97;;;30.13;20.69
50636;BME280;36598;46.054;11.130;2023-03-22T09:28:36;99158.97;;;30.98;20.33
50636;BME280;36598;46.054;11.130;2023-03-22T09:31:03;99158.56;;;30.12;20.76
50636;BME280;36598;46.054;11.130;2023-03-22T09:33:28;99161.22;;;28.66;22.40
50636;BME280;36598;46.054;11.130;2023-03-22T09:35:54;99159.25;;;29.92;21.28
50636;BME280;36598;46.054;11.130;2023-03-22T09:38:21;99145.97;;;30.08;20.75
50636;BME280;36598;46.054;11.130;2023-03-22T09:40:51;99147.06;;;29.25;21.80
50636;BME280;36598;46.054;11.130;2023-03-22T09:43:17;99140.44;;;28.72;22.41
50636;BME280;36598;46.054;11.130;2023-03-22T09:45:45;99137.53;;;28.90;22.73
50636;BME280;36598;46.054;11.130;2023-03-22T09:48:19;99125.94;;;29.87;21.39
50636;BME280;36598;46.054;11.130;2023-03-22T09:50:46;99120.53;;;28.85;21.95
50636;BME280;36598;46.054;11.130;2023-03-22T09:53:13;99116.72;;;28.82;22.44
50636;BME280;36598;46.054;11.130;2023-03-22T10:00:50;99109.47;;;29.53;21.35
50636;BME280;36598;46.054;11.130;2023-03-22T10:05:47;99110.66;;;28.40;22.63
50636;BME280;36598;46.054;11.130;2023-03-22T10:08:28;99106.19;;;29.62;21.40
50636;BME280;36598;46.054;11.130;2023-03-22T10:10:57;99098.63;;;29.52;21.47
50636;BME280;36598;46.054;11.130;2023-03-22T10:16:22;99087.56;;;29.35;21.82
50636;BME280;36598;46.054;11.130;2023-03-22T10:18:50;99094.91;;;28.85;22.38
50636;BME280;36598;46.054;11.130;2023-03-22T10:21:16;99092.38;;;29.66;21.41
50636;BME280;36598;46.054;11.130;2023-03-22T10:23:50;99079.19;;;29.90;21.44
50636;BME280;36598;46.054;11.130;2023-03-22T10:28:47;99084.56;;;28.68;22.26
50636;BME280;36598;46.054;11.130;2023-03-22T10:31:14;99076.06;;;30.14;21.22
50636;BME280;36598;46.054;11.130;2023-03-22T10:33:45;99075.66;;;30.31;21.18
50636;BME280;36598;46.054;11.130;2023-03-22T10:36:16;99063.22;;;29.74;20.92
50636;BME280;36598;46.054;11.130;2023-03-22T10:38:46;99057.69;;;29.89;20.91
50636;BME280;36598;46.054;11.130;2023-03-22T10:41:13;99061.72;;;29.59;21.21
50636;BME280;36598;46.054;11.130;2023-03-22T10:43:40;99054.13;;;29.22;21.72
50636;BME280;36598;46.054;11.130;2023-03-22T10:46:08;99062.59;;;27.99;22.95
50636;BME280;36598;46.054;11.130;2023-03-22T10:48:41;99053.28;;;28.82;22.62
50636;BME280;36598;46.054;11.130;2023-03-22T10:51:08;99055.47;;;26.76;24.52
50636;BME280;36598;46.054;11.130;2023-03-22T10:53:39;99049.72;;;28.49;22.85
50636;BME280;36598;46.054;11.130;2023-03-22T10:56:26;99046.84;;;26.27;25.00
50636;BME280;36598;46.054;11.130;2023-03-22T10:58:51;99048.47;;;24.61;27.14
50636;BME280;36598;46.054;11.130;2023-03-22T11:01:29;99045.88;;;24.85;26.57
50636;BME280;36598;46.054;11.130;2023-03-22T11:06:28;99033.47;;;25.80;26.14
50636;BME280;36598;46.054;11.130;2023-03-22T11:09:20;99032.53;;;25.55;26.10
50636;BME280;36598;46.054;11.130;2023-03-22T11:14:34;99018.94;;;26.66;24.94
50636;BME280;36598;46.054;11.130;2023-03-22T11:17:06;99022.63;;;26.26;25.72
50636;BME280;36598;46.054;11.130;2023-03-22T11:19:36;99013.66;;;25.11;26.98
50636;BME280;36598;46.054;11.130;2023-03-22T11:22:03;99017.03;;;23.91;28.06
50636;BME280;36598;46.054;11.130;2023-03-22T11:24:30;99014.31;;;23.43;29.34
50636;BME280;36598;46.054;11.130;2023-03-22T11:27:04;99008.50;;;22.09;31.04
50636;BME280;36598;46.054;11.130;2023-03-22T11:29:38;99005.13;;;22.99;30.22
50636;BME280;36598;46.054;11.130;2023-03-22T11:32:03;99004.50;;;22.84;30.48
50636;BME280;36598;46.054;11.130;2023-03-22T11:34:43;99002.31;;;22.62;31.07
50636;BME280;36598;46.054;11.130;2023-03-22T11:37:14;98991.50;;;23.63;29.86
50636;BME280;36598;46.054;11.130;2023-03-22T11:39:44;98996.47;;;22.34;31.27
50636;BME280;36598;46.054;11.130;2023-03-22T11:42:13;98991.09;;;23.16;30.25
50636;BME280;36598;46.054;11.130;2023-03-22T11:44:41;98983.34;;;24.89;28.75
50636;BME280;36598;46.054;11.130;2023-03-22T11:47:09;98978.28;;;24.20;29.21
50636;BME280;36598;46.054;11.130;2023-03-22T11:49:42;98973.00;;;25.61;28.08
50636;BME280;36598;46.054;11.130;2023-03-22T11:52:10;98965.81;;;26.01;27.02
50636;BME280;36598;46.054;11.130;2023-03-22T11:54:37;98961.47;;;26.00;26.99
50636;BME280;36598;46.054;11.130;2023-03-22T11:57:03;98954.84;;;26.77;27.25
50636;BME280;36598;46.054;11.130;2023-03-22T11:59:39;98950.22;;;26.98;26.27
50636;BME280;36598;46.054;11.130;2023-03-22T12:02:13;98949.88;;;26.83;27.60
50636;BME280;36598;46.054;11.130;2023-03-22T12:04:41;98946.09;;;26.75;25.79
50636;BME280;36598;46.054;11.130;2023-03-22T12:07:11;98943.91;;;26.32;26.97
50636;BME280;36598;46.054;11.130;2023-03-22T12:12:24;98939.13;;;26.51;26.89
50636;BME280;36598;46.054;11.130;2023-03-22T12:15:04;98934.38;;;25.99;26.47
50636;BME280;36598;46.054;11.130;2023-03-22T12:20:06;98921.56;;;26.53;26.95
50636;BME280;36598;46.054;11.130;2023-03-22T12:22:36;98911.56;;;26.46;26.50
50636;BME280;36598;46.054;11.130;2023-03-22T12:25:08;98906.47;;;25.79;26.68
50636;BME280;36598;46.054;11.130;2023-03-22T12:27:34;98898.97;;;26.11;26.95
50636;BME280;36598;46.054;11.130;2023-03-22T12:32:32;98893.00;;;26.69;26.89
50636;BME280;36598;46.054;11.130;2023-03-22T12:34:57;98887.69;;;26.60;26.56
50636;BME280;36598;46.054;11.130;2023-03-22T12:37:25;98878.63;;;26.62;25.43
50636;BME280;36598;46.054;11.130;2023-03-22T12:39:58;98878.75;;;26.51;26.25
50636;BME280;36598;46.054;11.130;2023-03-22T12:42:40;98870.44;;;26.04;27.04
50636;BME280;36598;46.054;11.130;2023-03-22T12:45:16;98865.25;;;26.32;26.51
50636;BME280;36598;46.054;11.130;2023-03-22T12:47:50;98864.31;;;26.73;26.64
50636;BME280;36598;46.054;11.130;2023-03-22T12:50:20;98853.91;;;26.81;25.75
50636;BME280;36598;46.054;11.130;2023-03-22T12:52:48;98856.41;;;26.66;26.29
50636;BME280;36598;46.054;11.130;2023-03-22T12:55:19;98852.69;;;26.28;27.12
50636;BME280;36598;46.054;11.130;2023-03-22T12:57:45;98849.06;;;26.27;26.34
50636;BME280;36598;46.054;11.130;2023-03-22T13:00:15;98848.41;;;26.15;26.37
50636;BME280;36598;46.054;11.130;2023-03-22T13:02:45;98844.50;;;25.94;26.57
50636;BME280;36598;46.054;11.130;2023-03-22T13:05:12;98836.28;;;25.90;27.00
50636;BME280;36598;46.054;11.130;2023-03-22T13:15:39;98828.22;;;26.00;26.99
50636;BME280;36598;46.054;11.130;2023-03-22T13:18:22;98823.94;;;25.58;26.31
50636;BME280;36598;46.054;11.130;2023-03-22T13:21:06;98807.25;;;25.13;27.09
50636;BME280;36598;46.054;11.130;2023-03-22T13:23:32;98813.97;;;25.45;27.25
50636;BME280;36598;46.054;11.130;2023-03-22T13:25:57;98808.69;;;25.61;26.94
50636;BME280;36598;46.054;11.130;2023-03-22T13:28:23;98806.81;;;25.39;27.41
50636;BME280;36598;46.054;11.130;2023-03-22T13:30:54;98805.41;;;25.57;26.64
50636;BME280;36598;46.054;11.130;2023-03-22T13:33:26;98808.66;;;25.31;26.66
50636;BME280;36598;46.054;11.130;2023-03-22T13:35:54;98796.69;;;25.49;27.15
50636;BME280;36598;46.054;11.130;2023-03-22T13:43:26;98790.91;;;25.30;27.31
50636;BME280;36598;46.054;11.130;2023-03-22T13:46:06;98785.22;;;25.36;27.76
50636;BME280;36598;46.054;11.130;2023-03-22T13:48:41;98775.19;;;24.93;27.80
50636;BME280;36598;46.054;11.130;2023-03-22T13:51:11;98779.97;;;25.15;27.94
50636;BME280;36598;46.054;11.130;2023-03-22T13:53:39;98781.50;;;25.16;28.30
50636;BME280;36598;46.054;11.130;2023-03-22T13:56:06;98775.84;;;25.16;28.13
50636;BME280;36598;46.054;11.130;2023-03-22T14:03:40;98766.03;;;24.01;27.27
50636;BME280;36598;46.054;11.130;2023-03-22T14:06:08;98765.09;;;23.70;27.65
50636;BME280;36598;46.054;11.130;2023-03-22T14:08:35;98758.16;;;23.66;27.78
50636;BME280;36598;46.054;11.130;2023-03-22T14:11:06;98760.22;;;23.65;27.45
50636;BME280;36598;46.054;11.130;2023-03-22T14:13:40;98756.06;;;23.83;27.46
50636;BME280;36598;46.054;11.130;2023-03-22T14:16:17;98757.38;;;23.26;28.00
50636;BME280;36598;46.054;11.130;2023-03-22T14:18:46;98744.56;;;23.47;27.53
50636;BME280;36598;46.054;11.130;2023-03-22T14:21:20;98745.31;;;23.37;27.89
50636;BME280;36598;46.054;11.130;2023-03-22T14:23:48;98743.50;;;23.45;28.21
50636;BME280;36598;46.054;11.130;2023-03-22T14:26:17;98734.81;;;23.32;28.33
50636;BME280;36598;46.054;11.130;2023-03-22T14:28:43;98738.88;;;23.42;28.62